createdAt,value
2019-04-29T00:01:22.857Z,8.92
2019-04-29T00:03:52.639Z,8.94
2019-04-29T00:06:22.494Z,8.98
2019-04-29T00:08:52.198Z,8.94
2019-04-29T00:11:22.057Z,8.89
2019-04-29T00:13:51.935Z,8.99
2019-04-29T00:16:39.515Z,8.90
2019-04-29T00:19:09.067Z,8.90
2019-04-29T00:21:40.688Z,8.87
2019-04-29T00:24:10.409Z,8.81
2019-04-29T00:26:40.099Z,8.78
2019-04-29T00:29:09.712Z,8.94
2019-04-29T00:31:39.426Z,8.81
2019-04-29T00:34:09.047Z,8.66
2019-04-29T00:36:40.393Z,8.60
2019-04-29T00:39:09.952Z,8.61
2019-04-29T00:41:45.155Z,8.63
2019-04-29T00:44:16.550Z,8.62
2019-04-29T00:46:46.598Z,8.69
2019-04-29T00:49:16.208Z,8.67
2019-04-29T00:51:45.834Z,8.68
2019-04-29T00:54:20.032Z,8.67
2019-04-29T00:56:48.846Z,8.75
2019-04-29T00:59:18.526Z,8.71
2019-04-29T01:01:48.462Z,8.81
2019-04-29T01:04:18.384Z,8.86
2019-04-29T01:06:48.069Z,8.66
2019-04-29T01:09:17.848Z,8.62
2019-04-29T01:11:47.467Z,8.61
2019-04-29T01:14:17.086Z,8.65
2019-04-29T01:16:46.797Z,8.72
2019-04-29T01:19:16.407Z,8.88
2019-04-29T01:21:46.053Z,8.79
2019-04-29T01:24:15.659Z,8.71
2019-04-29T01:26:49.947Z,8.65
2019-04-29T01:29:23.116Z,8.68
2019-04-29T01:31:52.776Z,8.63
2019-04-29T01:34:24.034Z,8.56
2019-04-29T01:36:53.741Z,8.64
2019-04-29T01:39:25.071Z,8.65
2019-04-29T01:41:59.029Z,8.71
2019-04-29T01:44:30.282Z,8.53
2019-04-29T01:46:59.947Z,8.45
2019-04-29T01:49:29.558Z,8.36
2019-04-29T01:51:59.179Z,8.49
2019-04-29T01:54:28.821Z,8.59
2019-04-29T01:56:58.448Z,8.41
2019-04-29T01:59:28.093Z,8.29
2019-04-29T02:01:57.704Z,8.28
2019-04-29T02:04:27.339Z,8.46
2019-04-29T02:06:56.954Z,8.32
2019-04-29T02:09:30.909Z,8.26
2019-04-29T02:12:00.768Z,8.43
2019-04-29T02:14:30.481Z,8.46
2019-04-29T02:17:00.095Z,8.30
2019-04-29T02:19:29.745Z,8.19
2019-04-29T02:22:09.620Z,8.09
2019-04-29T02:24:50.039Z,8.09
2019-04-29T02:27:19.725Z,7.99
2019-04-29T02:29:49.336Z,7.88
2019-04-29T02:32:18.987Z,7.87
2019-04-29T02:34:48.692Z,8.13
2019-04-29T02:37:19.968Z,8.01
2019-04-29T02:39:51.293Z,8.00
2019-04-29T02:42:38.566Z,8.07
2019-04-29T02:45:19.825Z,8.03
2019-04-29T02:47:49.611Z,7.99
2019-04-29T02:50:19.981Z,7.84
2019-04-29T02:52:49.623Z,7.96
2019-04-29T02:55:20.950Z,8.02
2019-04-29T02:57:52.237Z,7.89
2019-04-29T03:00:26.342Z,7.80
2019-04-29T03:03:00.664Z,7.73
2019-04-29T03:05:32.135Z,7.72
2019-04-29T03:08:02.193Z,7.63
2019-04-29T03:10:31.832Z,7.60
2019-04-29T03:13:01.494Z,7.74
2019-04-29T03:15:33.831Z,7.47
2019-04-29T03:18:03.641Z,7.36
2019-04-29T03:20:44.087Z,7.35
2019-04-29T03:23:15.338Z,7.39
2019-04-29T03:25:44.986Z,7.39
2019-04-29T03:28:14.600Z,7.39
2019-04-29T03:30:44.269Z,7.27
2019-04-29T03:33:14.097Z,7.22
2019-04-29T03:35:43.753Z,7.26
2019-04-29T03:38:13.449Z,7.37
2019-04-29T03:40:43.149Z,7.22
2019-04-29T03:43:12.836Z,7.12
2019-04-29T03:45:42.519Z,7.14
2019-04-29T03:48:12.164Z,7.04
2019-04-29T03:50:41.780Z,6.89
2019-04-29T03:53:11.418Z,6.88
2019-04-29T03:55:41.037Z,6.99
2019-04-29T03:58:10.687Z,7.07
2019-04-29T04:00:44.142Z,7.24
2019-04-29T04:03:22.806Z,7.25
2019-04-29T04:05:56.838Z,7.24
2019-04-29T04:08:28.087Z,7.26
2019-04-29T04:10:57.722Z,7.24
2019-04-29T04:13:28.275Z,7.17
2019-04-29T04:15:57.892Z,7.16
2019-04-29T04:18:29.162Z,7.02
2019-04-29T04:20:58.865Z,6.94
2019-04-29T04:23:28.604Z,6.95
2019-04-29T04:25:58.206Z,7.12
2019-04-29T04:28:27.822Z,7.18
2019-04-29T04:30:57.472Z,7.14
2019-04-29T04:33:27.104Z,7.04
2019-04-29T04:35:56.735Z,7.00
2019-04-29T04:38:26.366Z,7.03
2019-04-29T04:41:03.486Z,7.07
2019-04-29T04:43:33.169Z,7.12
2019-04-29T04:46:02.888Z,7.11
2019-04-29T04:48:32.569Z,7.12
2019-04-29T04:51:02.240Z,7.04
2019-04-29T04:53:31.931Z,6.91
2019-04-29T04:56:02.168Z,6.93
2019-04-29T04:58:31.776Z,6.85
2019-04-29T05:01:01.444Z,6.33
2019-04-29T05:03:31.048Z,6.52
2019-04-29T05:06:00.662Z,6.59
2019-04-29T05:08:30.302Z,6.49
2019-04-29T05:10:59.926Z,6.51
2019-04-29T05:13:29.586Z,6.33
2019-04-29T05:15:59.203Z,6.41
2019-04-29T05:18:28.846Z,6.44
2019-04-29T05:20:58.539Z,6.49
2019-04-29T05:23:28.190Z,6.53
2019-04-29T05:25:57.800Z,6.51
2019-04-29T05:28:27.443Z,6.55
2019-04-29T05:30:57.059Z,6.65
2019-04-29T05:33:26.887Z,6.70
2019-04-29T05:36:01.924Z,6.77
2019-04-29T05:38:42.350Z,6.82
2019-04-29T05:41:11.959Z,6.71
2019-04-29T05:43:43.207Z,6.66
2019-04-29T05:46:21.741Z,6.58
2019-04-29T05:48:52.124Z,6.69
2019-04-29T05:51:29.143Z,6.76
2019-04-29T05:54:03.083Z,6.73
2019-04-29T05:56:32.788Z,6.60
2019-04-29T05:59:02.401Z,6.65
2019-04-29T06:01:32.036Z,6.57
2019-04-29T06:04:01.744Z,6.33
2019-04-29T06:06:31.434Z,6.10
2019-04-29T06:09:01.054Z,6.26
2019-04-29T06:11:30.740Z,5.95
2019-04-29T06:14:00.392Z,6.30
2019-04-29T06:16:30.050Z,6.30
2019-04-29T06:19:00.416Z,6.29
2019-04-29T06:21:31.087Z,6.41
2019-04-29T06:24:04.362Z,6.23
2019-04-29T06:26:32.121Z,6.48
2019-04-29T06:29:01.779Z,6.57
2019-04-29T06:31:31.398Z,6.53
2019-04-29T06:34:05.167Z,6.69
2019-04-29T06:36:32.463Z,6.80
2019-04-29T06:39:02.102Z,6.76
2019-04-29T06:41:31.731Z,6.97
2019-04-29T06:44:06.717Z,7.04
2019-04-29T06:46:32.806Z,7.12
2019-04-29T06:49:10.212Z,7.13
2019-04-29T06:51:33.877Z,7.19
2019-04-29T06:54:03.500Z,7.41
2019-04-29T06:56:33.138Z,7.46
2019-04-29T06:59:02.828Z,7.58
2019-04-29T07:01:33.130Z,7.64
2019-04-29T07:04:03.814Z,7.62
2019-04-29T07:06:33.525Z,7.59
2019-04-29T07:09:03.208Z,7.77
2019-04-29T07:11:36.496Z,7.82
2019-04-29T07:14:04.330Z,7.82
2019-04-29T07:16:34.047Z,7.92
2019-04-29T07:19:03.798Z,7.87
2019-04-29T07:21:33.429Z,7.99
2019-04-29T07:24:03.070Z,7.73
2019-04-29T07:26:32.693Z,7.85
2019-04-29T07:29:02.331Z,8.09
2019-04-29T07:31:33.250Z,8.27
2019-04-29T07:34:03.327Z,8.34
2019-04-29T07:36:32.936Z,8.51
2019-04-29T07:39:02.586Z,8.54
2019-04-29T07:41:32.199Z,8.46
2019-04-29T07:44:01.836Z,8.63
2019-04-29T07:46:56.078Z,8.75
2019-04-29T07:49:17.326Z,8.85
2019-04-29T07:51:47.856Z,8.96
2019-04-29T07:54:17.687Z,9.19
2019-04-29T07:56:47.411Z,9.20
2019-04-29T07:59:17.086Z,9.12
2019-04-29T08:01:46.797Z,9.28
2019-04-29T08:04:16.407Z,9.20
2019-04-29T08:06:46.589Z,9.36
2019-04-29T08:09:16.443Z,9.41
2019-04-29T08:11:47.593Z,9.40
2019-04-29T08:14:19.255Z,9.51
2019-04-29T08:16:48.897Z,9.44
2019-04-29T08:19:18.507Z,9.46
2019-04-29T08:21:49.746Z,9.54
2019-04-29T08:24:19.496Z,9.63
2019-04-29T08:26:49.152Z,9.87
2019-04-29T08:29:18.771Z,9.88
2019-04-29T08:31:51.936Z,9.97
2019-04-29T08:34:23.110Z,10.18
2019-04-29T08:36:51.133Z,10.14
2019-04-29T08:39:20.755Z,10.25
2019-04-29T08:41:50.414Z,10.39
2019-04-29T08:44:21.757Z,10.22
2019-04-29T08:46:53.014Z,10.34
2019-04-29T08:49:22.667Z,10.44
2019-04-29T08:51:52.294Z,10.43
2019-04-29T08:54:22.013Z,10.34
2019-04-29T08:57:02.917Z,10.42
2019-04-29T08:59:24.424Z,10.44
2019-04-29T09:01:54.425Z,10.56
2019-04-29T09:04:24.075Z,10.57
2019-04-29T09:06:53.867Z,10.64
2019-04-29T09:09:29.230Z,10.92
2019-04-29T09:11:54.943Z,10.89
2019-04-29T09:14:24.619Z,10.90
2019-04-29T09:16:54.319Z,10.93
2019-04-29T09:19:23.948Z,11.01
2019-04-29T09:21:55.239Z,11.10
2019-04-29T09:24:24.861Z,11.12
2019-04-29T09:27:11.947Z,11.14
2019-04-29T09:29:41.642Z,11.18
2019-04-29T09:32:11.368Z,11.15
2019-04-29T09:34:40.991Z,11.43
2019-04-29T09:37:10.644Z,11.34
2019-04-29T09:39:43.664Z,11.43
2019-04-29T09:42:18.292Z,11.56
2019-04-29T09:45:02.792Z,11.47
2019-04-29T09:47:32.909Z,11.62
2019-04-29T09:50:02.724Z,11.74
2019-04-29T09:52:32.409Z,11.88
2019-04-29T09:55:03.964Z,12.03
2019-04-29T09:57:33.543Z,12.10
2019-04-29T10:00:14.871Z,11.97
2019-04-29T10:02:46.136Z,11.98
2019-04-29T10:05:33.948Z,12.06
2019-04-29T10:08:03.739Z,12.19
2019-04-29T10:10:37.121Z,12.33
2019-04-29T10:13:06.041Z,12.40
2019-04-29T10:15:40.323Z,12.46
2019-04-29T10:18:25.142Z,12.50
2019-04-29T10:20:55.974Z,12.61
2019-04-29T10:23:25.669Z,12.70
2019-04-29T10:25:55.309Z,12.73
2019-04-29T10:28:24.938Z,12.66
2019-04-29T10:30:54.594Z,12.73
2019-04-29T10:33:25.024Z,12.78
2019-04-29T10:35:54.647Z,12.79
2019-04-29T10:38:24.464Z,12.86
2019-04-29T10:41:00.673Z,12.88
2019-04-29T10:43:49.387Z,12.84
2019-04-29T10:46:37.869Z,12.93
2019-04-29T10:49:25.814Z,13.01
2019-04-29T10:51:57.949Z,13.05
2019-04-29T10:54:28.707Z,13.06
2019-04-29T10:56:58.667Z,12.75
2019-04-29T10:59:36.107Z,12.91
2019-04-29T11:02:15.869Z,13.02
2019-04-29T11:04:47.392Z,12.97
2019-04-29T11:07:23.079Z,12.94
2019-04-29T11:09:54.461Z,13.04
2019-04-29T11:12:24.154Z,13.15
2019-04-29T11:14:53.845Z,13.20
2019-04-29T11:17:25.273Z,13.35
2019-04-29T11:19:55.501Z,13.38
2019-04-29T11:22:26.859Z,13.41
2019-04-29T11:25:01.173Z,13.51
2019-04-29T11:27:31.765Z,13.59
2019-04-29T11:30:02.974Z,13.73
2019-04-29T11:32:35.037Z,13.73
2019-04-29T11:35:08.317Z,13.62
2019-04-29T11:37:38.043Z,13.54
2019-04-29T11:40:08.372Z,13.60
2019-04-29T11:42:41.613Z,13.62
2019-04-29T11:45:13.267Z,13.82
2019-04-29T11:47:41.399Z,14.02
2019-04-29T11:50:13.646Z,14.02
2019-04-29T11:52:43.497Z,14.08
2019-04-29T11:55:17.952Z,14.27
2019-04-29T11:57:46.872Z,14.09
2019-04-29T12:00:26.145Z,14.16
2019-04-29T12:02:57.502Z,14.30
2019-04-29T12:05:28.897Z,14.29
2019-04-29T12:07:58.857Z,14.29
2019-04-29T12:10:28.753Z,14.27
2019-04-29T12:13:00.039Z,14.24
2019-04-29T12:15:31.371Z,14.02
2019-04-29T12:18:05.175Z,13.97
2019-04-29T12:20:42.230Z,13.98
2019-04-29T12:23:15.729Z,14.13
2019-04-29T12:25:43.634Z,14.20
2019-04-29T12:28:19.166Z,14.13
2019-04-29T12:30:46.416Z,13.85
2019-04-29T12:33:17.703Z,13.88
2019-04-29T12:35:51.927Z,14.13
2019-04-29T12:38:39.399Z,14.36
2019-04-29T12:41:03.263Z,14.35
2019-04-29T12:43:53.582Z,14.41
2019-04-29T12:46:35.862Z,14.54
2019-04-29T12:49:08.515Z,14.67
2019-04-29T12:51:37.280Z,14.69
2019-04-29T12:54:07.005Z,14.82
2019-04-29T12:56:38.273Z,14.56
2019-04-29T12:59:08.370Z,14.62
2019-04-29T13:01:51.281Z,14.66
2019-04-29T13:04:36.297Z,14.82
2019-04-29T13:07:26.331Z,14.86
2019-04-29T13:09:57.593Z,14.91
2019-04-29T13:12:30.274Z,14.95
2019-04-29T13:15:16.614Z,14.93
2019-04-29T13:18:02.359Z,14.93
2019-04-29T13:20:20.368Z,14.95
2019-04-29T13:22:50.014Z,14.86
2019-04-29T13:25:20.826Z,14.87
2019-04-29T13:27:50.713Z,14.76
2019-04-29T13:30:20.849Z,14.50
2019-04-29T13:32:50.496Z,14.46
2019-04-29T13:35:20.387Z,14.39
2019-04-29T13:37:50.043Z,14.48
2019-04-29T13:40:21.095Z,14.62
2019-04-29T13:42:51.058Z,14.58
2019-04-29T13:45:26.409Z,14.68
2019-04-29T13:47:55.942Z,14.53
2019-04-29T13:50:43.114Z,14.67
2019-04-29T13:53:16.561Z,14.62
2019-04-29T13:55:50.234Z,14.53
2019-04-29T13:58:15.634Z,14.44
2019-04-29T14:00:55.612Z,14.67
2019-04-29T14:03:42.156Z,14.65
2019-04-29T14:06:14.438Z,14.78
2019-04-29T14:08:42.248Z,14.98
2019-04-29T14:11:11.992Z,14.91
2019-04-29T14:13:43.178Z,14.97
2019-04-29T14:16:13.350Z,15.05
2019-04-29T14:18:43.652Z,15.07
2019-04-29T14:21:14.453Z,15.03
2019-04-29T14:23:44.106Z,14.90
2019-04-29T14:26:13.802Z,14.95
2019-04-29T14:28:43.751Z,15.06
2019-04-29T14:31:13.377Z,15.04
2019-04-29T14:33:44.640Z,15.18
2019-04-29T14:36:14.294Z,15.40
2019-04-29T14:38:43.913Z,15.34
2019-04-29T14:41:14.089Z,15.29
2019-04-29T14:43:55.042Z,15.34
2019-04-29T14:46:31.908Z,15.49
2019-04-29T14:49:06.205Z,15.57
2019-04-29T14:51:36.921Z,15.60
2019-04-29T14:54:07.525Z,15.53
2019-04-29T14:56:37.439Z,15.54
2019-04-29T14:59:07.723Z,15.61
2019-04-29T15:01:57.377Z,15.46
2019-04-29T15:04:28.720Z,15.38
2019-04-29T15:06:58.479Z,15.47
2019-04-29T15:09:28.279Z,15.55
2019-04-29T15:12:02.378Z,15.51
2019-04-29T15:14:33.702Z,15.54
2019-04-29T15:17:06.515Z,15.56
2019-04-29T15:19:56.471Z,15.32
2019-04-29T15:22:30.730Z,15.24
2019-04-29T15:25:00.363Z,15.12
2019-04-29T15:27:30.001Z,15.07
2019-04-29T15:29:59.708Z,15.08
2019-04-29T15:32:29.418Z,15.01
2019-04-29T15:34:59.072Z,14.80
2019-04-29T15:37:28.698Z,14.71
2019-04-29T15:39:58.566Z,14.64
2019-04-29T15:42:28.381Z,14.68
2019-04-29T15:44:58.019Z,14.70
2019-04-29T15:47:31.168Z,14.61
2019-04-29T15:50:00.737Z,14.62
2019-04-29T15:52:30.375Z,14.66
2019-04-29T15:55:00.028Z,14.59
2019-04-29T15:57:29.655Z,14.59
2019-04-29T16:00:01.436Z,14.62
2019-04-29T16:02:30.665Z,14.58
2019-04-29T16:05:14.782Z,14.51
2019-04-29T16:07:59.998Z,14.45
2019-04-29T16:10:29.568Z,14.44
2019-04-29T16:13:07.060Z,14.41
2019-04-29T16:15:36.735Z,14.45
2019-04-29T16:18:10.732Z,14.31
2019-04-29T16:20:37.916Z,14.19
2019-04-29T16:23:07.592Z,14.25
2019-04-29T16:25:40.741Z,14.26
2019-04-29T16:28:08.699Z,14.13
2019-04-29T16:30:38.757Z,14.14
2019-04-29T16:33:13.942Z,13.92
2019-04-29T16:35:39.950Z,13.88
2019-04-29T16:38:11.451Z,13.85
2019-04-29T16:40:43.005Z,13.72
2019-04-29T16:43:14.295Z,13.66
2019-04-29T16:45:51.609Z,13.58
2019-04-29T16:48:21.198Z,13.57
2019-04-29T16:50:50.957Z,13.47
2019-04-29T16:53:20.676Z,13.54
2019-04-29T16:55:50.312Z,13.46
2019-04-29T16:58:20.001Z,13.36
2019-04-29T17:00:52.810Z,13.36
2019-04-29T17:03:21.497Z,13.62
2019-04-29T17:05:51.141Z,13.53
2019-04-29T17:08:22.483Z,13.40
2019-04-29T17:10:56.636Z,13.30
2019-04-29T17:13:26.266Z,13.31
2019-04-29T17:15:55.930Z,13.14
2019-04-29T17:18:25.562Z,13.19
2019-04-29T17:21:04.533Z,13.02
2019-04-29T17:23:26.554Z,12.95
2019-04-29T17:25:56.377Z,12.75
2019-04-29T17:28:33.682Z,12.76
2019-04-29T17:31:21.324Z,12.71
2019-04-29T17:33:55.991Z,12.73
2019-04-29T17:36:26.034Z,12.70
2019-04-29T17:38:55.693Z,12.65
2019-04-29T17:41:25.389Z,12.63
2019-04-29T17:43:56.826Z,12.50
2019-04-29T17:46:26.218Z,12.50
2019-04-29T17:49:03.241Z,12.42
2019-04-29T17:51:34.033Z,12.44
2019-04-29T17:54:05.551Z,12.45
2019-04-29T17:57:08.623Z,12.37
2019-04-29T17:59:29.687Z,12.37
2019-04-29T18:02:18.358Z,12.34
2019-04-29T18:04:49.676Z,12.29
2019-04-29T18:07:29.387Z,12.30
2019-04-29T18:10:00.686Z,12.40
2019-04-29T18:12:37.686Z,12.32
2019-04-29T18:15:01.677Z,12.28
2019-04-29T18:17:33.016Z,12.16
2019-04-29T18:20:08.504Z,12.17
2019-04-29T18:22:44.721Z,12.11
2019-04-29T18:25:30.293Z,12.10
2019-04-29T18:27:53.216Z,12.02
2019-04-29T18:30:33.248Z,12.05
2019-04-29T18:32:55.149Z,12.01
2019-04-29T18:35:25.571Z,11.98
2019-04-29T18:37:55.744Z,12.01
2019-04-29T18:40:25.845Z,11.98
2019-04-29T18:42:55.678Z,11.94
2019-04-29T18:45:29.267Z,11.91
2019-04-29T18:47:56.680Z,11.92
2019-04-29T18:50:29.620Z,11.92
2019-04-29T18:52:57.696Z,11.89
2019-04-29T18:55:28.165Z,11.91
2019-04-29T18:57:58.449Z,11.86
2019-04-29T19:00:28.128Z,11.85
2019-04-29T19:03:00.979Z,11.79
2019-04-29T19:05:32.461Z,11.74
2019-04-29T19:08:12.168Z,11.77
2019-04-29T19:10:35.407Z,11.84
2019-04-29T19:13:12.404Z,11.82
2019-04-29T19:15:39.895Z,11.81
2019-04-29T19:18:12.104Z,11.69
2019-04-29T19:20:39.429Z,11.67
2019-04-29T19:23:10.351Z,11.67
2019-04-29T19:25:41.623Z,11.64
2019-04-29T19:28:15.119Z,11.48
2019-04-29T19:30:42.953Z,11.49
2019-04-29T19:33:12.604Z,11.48
2019-04-29T19:35:42.316Z,11.47
2019-04-29T19:38:13.428Z,11.51
2019-04-29T19:40:43.359Z,11.43
2019-04-29T19:43:17.391Z,11.48
2019-04-29T19:45:44.702Z,11.42
2019-04-29T19:48:16.194Z,11.31
2019-04-29T19:50:50.096Z,11.35
2019-04-29T19:53:17.567Z,11.26
2019-04-29T19:55:47.293Z,11.21
2019-04-29T19:58:17.787Z,11.21
2019-04-29T20:00:49.027Z,11.09
2019-04-29T20:03:23.873Z,11.12
2019-04-29T20:05:52.621Z,11.18
2019-04-29T20:08:41.295Z,11.17
2019-04-29T20:10:56.642Z,11.25
2019-04-29T20:13:31.325Z,11.11
2019-04-29T20:16:10.927Z,11.14
2019-04-29T20:18:40.260Z,11.04
2019-04-29T20:21:24.702Z,10.92
2019-04-29T20:23:47.123Z,10.87
2019-04-29T20:26:23.781Z,10.83
2019-04-29T20:28:51.072Z,10.77
2019-04-29T20:31:22.197Z,10.91
2019-04-29T20:33:51.186Z,10.96
2019-04-29T20:36:33.319Z,10.94
2019-04-29T20:38:52.494Z,10.64
2019-04-29T20:41:38.123Z,10.78
2019-04-29T20:43:56.035Z,10.73
2019-04-29T20:46:30.134Z,10.71
2019-04-29T20:48:59.593Z,10.76
2019-04-29T20:51:41.362Z,10.82
2019-04-29T20:54:09.061Z,10.70
2019-04-29T20:56:38.288Z,10.68
2019-04-29T20:59:12.450Z,10.73
2019-04-29T21:01:43.326Z,10.65
2019-04-29T21:04:12.466Z,10.63
2019-04-29T21:06:57.525Z,10.70
2019-04-29T21:09:14.944Z,10.69
2019-04-29T21:11:51.706Z,10.66
2019-04-29T21:14:34.031Z,10.65
2019-04-29T21:17:02.244Z,10.65
2019-04-29T21:19:31.385Z,10.56
2019-04-29T21:22:01.009Z,10.53
2019-04-29T21:24:30.656Z,10.53
2019-04-29T21:27:00.354Z,10.52
2019-04-29T21:29:30.012Z,10.54
2019-04-29T21:32:01.646Z,10.57
2019-04-29T21:34:34.605Z,10.61
2019-04-29T21:37:09.696Z,10.46
2019-04-29T21:39:56.917Z,10.46
2019-04-29T21:42:35.721Z,10.40
2019-04-29T21:45:10.198Z,10.45
2019-04-29T21:47:45.096Z,10.47
2019-04-29T21:50:10.802Z,10.49
2019-04-29T21:52:40.449Z,10.45
2019-04-29T21:55:10.488Z,10.48
2019-04-29T21:57:40.136Z,10.35
2019-04-29T22:00:11.450Z,10.32
2019-04-29T22:02:41.509Z,10.29
2019-04-29T22:05:14.789Z,10.33
2019-04-29T22:07:47.378Z,10.43
2019-04-29T22:10:20.032Z,10.32
2019-04-29T22:12:50.996Z,10.25
2019-04-29T22:15:29.786Z,10.21
2019-04-29T22:17:56.411Z,10.26
2019-04-29T22:20:22.662Z,10.27
2019-04-29T22:22:52.287Z,10.32
2019-04-29T22:25:22.017Z,10.30
2019-04-29T22:27:51.647Z,10.28
2019-04-29T22:30:22.074Z,10.26
2019-04-29T22:32:56.147Z,10.24
2019-04-29T22:35:25.193Z,10.29
2019-04-29T22:37:55.512Z,10.32
2019-04-29T22:40:25.426Z,10.26
2019-04-29T22:43:04.712Z,10.25
2019-04-29T22:45:29.544Z,10.31
2019-04-29T22:48:14.638Z,10.31
2019-04-29T22:50:33.676Z,10.28
2019-04-29T22:53:07.266Z,10.23
2019-04-29T22:55:37.793Z,10.24
2019-04-29T22:58:09.738Z,10.14
2019-04-29T23:00:37.839Z,10.12
2019-04-29T23:03:07.551Z,10.21
2019-04-29T23:05:37.934Z,10.26
2019-04-29T23:08:07.862Z,10.30
2019-04-29T23:10:37.490Z,10.26
2019-04-29T23:13:07.214Z,10.28
2019-04-29T23:15:36.839Z,10.25
2019-04-29T23:18:07.798Z,10.16
2019-04-29T23:20:55.429Z,10.25
2019-04-29T23:23:33.149Z,10.26
2019-04-29T23:25:59.829Z,10.20
2019-04-29T23:28:29.494Z,10.06
2019-04-29T23:30:59.120Z,10.09
2019-04-29T23:33:28.765Z,10.13
2019-04-29T23:35:58.392Z,10.30
2019-04-29T23:38:28.084Z,10.21
2019-04-29T23:40:57.713Z,10.17
2019-04-29T23:43:28.567Z,10.07
2019-04-29T23:46:00.446Z,10.15
2019-04-29T23:48:38.782Z,10.18
2019-04-29T23:51:01.161Z,10.04
2019-04-29T23:53:30.785Z,10.06
2019-04-29T23:56:04.777Z,10.07
2019-04-29T23:58:49.341Z,10.05
